sensor_id;sensor_type;location;lat;lon;timestamp;P1;durP1;ratioP1;P2;durP2;ratioP2
70457;SDS011;57919;56.194;95.716;2023-06-19T00:03:25;14.00;;;6.88;;
70457;SDS011;57919;56.194;95.716;2023-06-19T00:13:27;10.00;;;6.90;;
70457;SDS011;57919;56.194;95.716;2023-06-19T00:23:29;14.70;;;6.53;;
70457;SDS011;57919;56.194;95.716;2023-06-19T00:33:30;10.20;;;5.10;;
70457;SDS011;57919;56.194;95.716;2023-06-19T00:43:33;7.63;;;4.40;;
70457;SDS011;57919;56.194;95.716;2023-06-19T00:53:35;9.15;;;4.78;;
70457;SDS011;57919;56.194;95.716;2023-06-19T01:03:37;7.17;;;4.03;;
70457;SDS011;57919;56.194;95.716;2023-06-19T01:24:05;7.40;;;4.07;;
70457;SDS011;57919;56.194;95.716;2023-06-19T01:34:06;10.53;;;3.53;;
70457;SDS011;57919;56.194;95.716;2023-06-19T01:44:12;7.97;;;4.05;;
70457;SDS011;57919;56.194;95.716;2023-06-19T01:54:14;7.10;;;4.07;;
70457;SDS011;57919;56.194;95.716;2023-06-19T02:04:16;7.63;;;4.60;;
70457;SDS011;57919;56.194;95.716;2023-06-19T02:14:18;7.00;;;3.63;;
70457;SDS011;57919;56.194;95.716;2023-06-19T02:24:22;6.80;;;3.70;;
70457;SDS011;57919;56.194;95.716;2023-06-19T02:34:23;8.00;;;5.03;;
70457;SDS011;57919;56.194;95.716;2023-06-19T02:44:26;9.80;;;3.53;;
70457;SDS011;57919;56.194;95.716;2023-06-19T02:54:27;5.60;;;2.75;;
70457;SDS011;57919;56.194;95.716;2023-06-19T03:04:29;8.17;;;4.20;;
70457;SDS011;57919;56.194;95.716;2023-06-19T03:48:01;6.97;;;3.00;;
70457;SDS011;57919;56.194;95.716;2023-06-19T03:58:04;6.83;;;3.53;;
70457;SDS011;57919;56.194;95.716;2023-06-19T04:08:07;8.57;;;3.90;;
70457;SDS011;57919;56.194;95.716;2023-06-19T04:18:10;7.17;;;3.27;;
70457;SDS011;57919;56.194;95.716;2023-06-19T04:28:12;7.33;;;3.43;;
70457;SDS011;57919;56.194;95.716;2023-06-19T04:38:14;6.13;;;3.03;;
70457;SDS011;57919;56.194;95.716;2023-06-19T04:48:17;5.90;;;2.60;;
70457;SDS011;57919;56.194;95.716;2023-06-19T04:58:19;6.03;;;2.60;;
70457;SDS011;57919;56.194;95.716;2023-06-19T05:08:22;5.87;;;2.63;;
70457;SDS011;57919;56.194;95.716;2023-06-19T05:18:24;7.30;;;2.40;;
70457;SDS011;57919;56.194;95.716;2023-06-19T05:28:25;8.05;;;2.25;;
70457;SDS011;57919;56.194;95.716;2023-06-19T05:38:27;5.80;;;2.37;;
70457;SDS011;57919;56.194;95.716;2023-06-19T05:48:35;6.70;;;2.53;;
70457;SDS011;57919;56.194;95.716;2023-06-19T05:58:48;6.33;;;2.20;;
70457;SDS011;57919;56.194;95.716;2023-06-19T06:08:50;5.30;;;2.07;;
70457;SDS011;57919;56.194;95.716;2023-06-19T06:18:56;5.93;;;2.40;;
70457;SDS011;57919;56.194;95.716;2023-06-19T06:28:58;7.00;;;2.60;;
70457;SDS011;57919;56.194;95.716;2023-06-19T06:39:00;5.60;;;2.60;;
70457;SDS011;57919;56.194;95.716;2023-06-19T06:49:02;7.27;;;2.63;;
70457;SDS011;57919;56.194;95.716;2023-06-19T06:59:04;6.10;;;2.73;;
70457;SDS011;57919;56.194;95.716;2023-06-19T07:09:06;8.80;;;2.63;;
70457;SDS011;57919;56.194;95.716;2023-06-19T07:19:08;6.27;;;2.80;;
70457;SDS011;57919;56.194;95.716;2023-06-19T07:29:10;5.53;;;2.08;;
70457;SDS011;57919;56.194;95.716;2023-06-19T07:39:12;6.63;;;2.60;;
70457;SDS011;57919;56.194;95.716;2023-06-19T07:49:14;6.47;;;2.30;;
70457;SDS011;57919;56.194;95.716;2023-06-19T07:59:16;9.40;;;2.40;;
70457;SDS011;57919;56.194;95.716;2023-06-19T08:09:18;6.67;;;2.40;;
70457;SDS011;57919;56.194;95.716;2023-06-19T08:19:20;7.40;;;2.33;;
70457;SDS011;57919;56.194;95.716;2023-06-19T08:29:22;6.57;;;2.27;;
70457;SDS011;57919;56.194;95.716;2023-06-19T08:39:24;4.97;;;2.40;;
70457;SDS011;57919;56.194;95.716;2023-06-19T08:49:32;5.03;;;1.98;;
70457;SDS011;57919;56.194;95.716;2023-06-19T08:59:35;6.03;;;2.50;;
70457;SDS011;57919;56.194;95.716;2023-06-19T09:09:43;6.43;;;2.50;;
70457;SDS011;57919;56.194;95.716;2023-06-19T09:19:48;7.83;;;2.63;;
70457;SDS011;57919;56.194;95.716;2023-06-19T09:29:54;7.00;;;2.60;;
70457;SDS011;57919;56.194;95.716;2023-06-19T09:39:58;6.75;;;2.53;;
70457;SDS011;57919;56.194;95.716;2023-06-19T09:50:02;9.33;;;3.20;;
70457;SDS011;57919;56.194;95.716;2023-06-19T10:00:06;6.97;;;2.78;;
70457;SDS011;57919;56.194;95.716;2023-06-19T10:10:23;7.13;;;2.57;;
70457;SDS011;57919;56.194;95.716;2023-06-19T10:20:28;6.90;;;2.37;;
70457;SDS011;57919;56.194;95.716;2023-06-19T10:30:33;6.05;;;2.50;;
70457;SDS011;57919;56.194;95.716;2023-06-19T10:40:38;7.10;;;2.10;;
70457;SDS011;57919;56.194;95.716;2023-06-19T10:50:41;6.10;;;2.58;;
70457;SDS011;57919;56.194;95.716;2023-06-19T11:00:44;8.40;;;2.90;;
70457;SDS011;57919;56.194;95.716;2023-06-19T11:10:46;11.57;;;3.30;;
70457;SDS011;57919;56.194;95.716;2023-06-19T11:20:50;12.63;;;2.92;;
70457;SDS011;57919;56.194;95.716;2023-06-19T11:30:59;7.20;;;3.10;;
70457;SDS011;57919;56.194;95.716;2023-06-19T11:41:03;5.72;;;2.40;;
70457;SDS011;57919;56.194;95.716;2023-06-19T11:51:05;8.03;;;2.77;;
70457;SDS011;57919;56.194;95.716;2023-06-19T12:01:09;8.30;;;2.60;;
70457;SDS011;57919;56.194;95.716;2023-06-19T12:11:11;4.93;;;2.40;;
70457;SDS011;57919;56.194;95.716;2023-06-19T12:21:14;9.17;;;3.40;;
70457;SDS011;57919;56.194;95.716;2023-06-19T12:31:17;11.77;;;4.45;;
70457;SDS011;57919;56.194;95.716;2023-06-19T12:41:20;8.07;;;2.43;;
70457;SDS011;57919;56.194;95.716;2023-06-19T12:51:22;5.27;;;2.60;;
70457;SDS011;57919;56.194;95.716;2023-06-19T13:01:25;9.65;;;3.33;;
70457;SDS011;57919;56.194;95.716;2023-06-19T13:11:26;12.87;;;3.63;;
70457;SDS011;57919;56.194;95.716;2023-06-19T13:21:29;11.60;;;4.97;;
70457;SDS011;57919;56.194;95.716;2023-06-19T13:31:31;17.50;;;6.10;;
70457;SDS011;57919;56.194;95.716;2023-06-19T13:41:33;14.40;;;4.47;;
70457;SDS011;57919;56.194;95.716;2023-06-19T13:51:36;16.13;;;5.57;;
70457;SDS011;57919;56.194;95.716;2023-06-19T14:01:39;14.90;;;6.73;;
70457;SDS011;57919;56.194;95.716;2023-06-19T14:11:42;13.75;;;5.75;;
70457;SDS011;57919;56.194;95.716;2023-06-19T14:21:45;18.67;;;7.77;;
70457;SDS011;57919;56.194;95.716;2023-06-19T14:31:47;25.10;;;10.40;;
70457;SDS011;57919;56.194;95.716;2023-06-19T14:41:51;17.10;;;7.28;;
70457;SDS011;57919;56.194;95.716;2023-06-19T14:51:53;17.63;;;7.30;;
70457;SDS011;57919;56.194;95.716;2023-06-19T15:01:58;13.63;;;6.10;;
70457;SDS011;57919;56.194;95.716;2023-06-19T15:12:00;22.13;;;6.90;;
70457;SDS011;57919;56.194;95.716;2023-06-19T15:22:01;14.67;;;6.63;;
70457;SDS011;57919;56.194;95.716;2023-06-19T15:32:04;30.80;;;12.93;;
70457;SDS011;57919;56.194;95.716;2023-06-19T15:42:06;64.70;;;36.27;;
70457;SDS011;57919;56.194;95.716;2023-06-19T15:52:09;84.03;;;49.72;;
70457;SDS011;57919;56.194;95.716;2023-06-19T16:02:11;63.77;;;36.70;;
70457;SDS011;57919;56.194;95.716;2023-06-19T16:12:13;51.97;;;27.20;;
70457;SDS011;57919;56.194;95.716;2023-06-19T16:22:15;42.03;;;22.17;;
70457;SDS011;57919;56.194;95.716;2023-06-19T16:32:17;21.30;;;8.37;;
70457;SDS011;57919;56.194;95.716;2023-06-19T16:42:19;15.30;;;6.40;;
70457;SDS011;57919;56.194;95.716;2023-06-19T16:52:24;13.73;;;4.23;;
70457;SDS011;57919;56.194;95.716;2023-06-19T17:02:27;13.57;;;3.50;;
70457;SDS011;57919;56.194;95.716;2023-06-19T17:12:30;14.00;;;3.90;;
70457;SDS011;57919;56.194;95.716;2023-06-19T17:22:34;9.20;;;3.87;;
70457;SDS011;57919;56.194;95.716;2023-06-19T17:32:37;14.18;;;4.10;;
70457;SDS011;57919;56.194;95.716;2023-06-19T17:42:39;11.40;;;3.53;;
70457;SDS011;57919;56.194;95.716;2023-06-19T17:52:42;8.47;;;3.00;;
70457;SDS011;57919;56.194;95.716;2023-06-19T18:02:44;9.15;;;3.88;;
70457;SDS011;57919;56.194;95.716;2023-06-19T18:12:46;7.00;;;3.17;;
70457;SDS011;57919;56.194;95.716;2023-06-19T18:22:49;8.18;;;3.42;;
70457;SDS011;57919;56.194;95.716;2023-06-19T18:32:51;6.33;;;2.90;;
70457;SDS011;57919;56.194;95.716;2023-06-19T18:42:53;8.97;;;3.30;;
70457;SDS011;57919;56.194;95.716;2023-06-19T18:52:55;8.80;;;3.55;;
70457;SDS011;57919;56.194;95.716;2023-06-19T19:02:57;6.20;;;2.87;;
70457;SDS011;57919;56.194;95.716;2023-06-19T19:12:59;6.38;;;3.20;;
70457;SDS011;57919;56.194;95.716;2023-06-19T19:23:01;6.67;;;3.03;;
70457;SDS011;57919;56.194;95.716;2023-06-19T19:33:03;10.33;;;3.23;;
70457;SDS011;57919;56.194;95.716;2023-06-19T19:43:05;6.65;;;3.10;;
70457;SDS011;57919;56.194;95.716;2023-06-19T19:53:07;7.37;;;3.50;;
70457;SDS011;57919;56.194;95.716;2023-06-19T20:03:09;10.57;;;4.55;;
70457;SDS011;57919;56.194;95.716;2023-06-19T20:13:11;21.17;;;7.57;;
70457;SDS011;57919;56.194;95.716;2023-06-19T20:23:13;23.67;;;7.77;;
70457;SDS011;57919;56.194;95.716;2023-06-19T20:33:15;19.45;;;7.97;;
70457;SDS011;57919;56.194;95.716;2023-06-19T20:43:17;20.40;;;8.67;;
70457;SDS011;57919;56.194;95.716;2023-06-19T20:53:18;20.48;;;9.18;;
70457;SDS011;57919;56.194;95.716;2023-06-19T21:03:20;24.73;;;10.67;;
70457;SDS011;57919;56.194;95.716;2023-06-19T21:13:22;19.10;;;8.70;;
70457;SDS011;57919;56.194;95.716;2023-06-19T21:23:25;16.95;;;7.57;;
70457;SDS011;57919;56.194;95.716;2023-06-19T21:33:26;14.53;;;6.57;;
70457;SDS011;57919;56.194;95.716;2023-06-19T21:43:32;9.80;;;4.50;;
70457;SDS011;57919;56.194;95.716;2023-06-19T21:53:34;15.13;;;6.07;;
70457;SDS011;57919;56.194;95.716;2023-06-19T22:03:36;18.17;;;8.50;;
70457;SDS011;57919;56.194;95.716;2023-06-19T22:13:38;22.85;;;11.13;;
70457;SDS011;57919;56.194;95.716;2023-06-19T22:23:40;20.97;;;11.57;;
70457;SDS011;57919;56.194;95.716;2023-06-19T22:33:42;17.35;;;7.72;;
70457;SDS011;57919;56.194;95.716;2023-06-19T22:43:44;14.97;;;6.47;;
70457;SDS011;57919;56.194;95.716;2023-06-19T22:53:46;10.97;;;3.70;;
70457;SDS011;57919;56.194;95.716;2023-06-19T23:03:49;7.45;;;3.05;;
70457;SDS011;57919;56.194;95.716;2023-06-19T23:13:51;10.30;;;2.93;;
70457;SDS011;57919;56.194;95.716;2023-06-19T23:23:53;9.02;;;4.57;;
70457;SDS011;57919;56.194;95.716;2023-06-19T23:33:54;7.77;;;3.40;;
70457;SDS011;57919;56.194;95.716;2023-06-19T23:44:00;7.93;;;2.67;;
70457;SDS011;57919;56.194;95.716;2023-06-19T23:54:02;11.48;;;2.83;;
